EBAW/ANR METAR and TAF weather

Enter ICAO airport designator
Station Type Date Time Source
EBAW METAR 2019/12/08 13:50 UTC NOAA

EBAW 081350Z 25017G27KT 210V270 9999 FEW032 11/04 Q1001 TEMPO 25015G25KT


Station Type Date Time Source
EBAW Decoded METAR 2019/12/08 13:50 UTC NOAA

Antwerpen / Deurne, Belgium (EBAW) 51-12N 004-28E 14M
Dec 08, 2019 - 08:50 AM EST / 2019.12.08 1350 UTC
Wind: from the WSW (250 degrees) at 20 MPH (17 KT) gusting to 31 MPH (27 KT) (direction variable):0
Visibility: greater than 7 mile(s):0
Sky conditions: mostly clear
Temperature: 51 F (11 C)
Dew Point: 39 F (4 C)
Relative Humidity: 61%
Pressure (altimeter): 29.56 in. Hg (1001 hPa)
ob: EBAW 081350Z 25017G27KT 210V270 9999 FEW032 11/04 Q1001 TEMPO 25015G25KT
cycle: 14

Station Type Date Time Source
EBAW TAF 2019/07/25 18:27 UTC NOAA

TAF TAF EBAW 251700Z 2518/2606 11007KT CAVOK PROB30
TEMPO 2518/2520 VRB15G30KT 3500 SHRA TSRA

Example: see airport list